Raisin, California
Current Conditions -  °F | °C
As of 9:53 AM on Thursday 27 Nov 2014 (Local Time) from KFAT Reporting Station
Haze Haze  
Wind Chill: 57°   Ceiling: 20000
Heat Index: 57°   Visibility: 4mi
Dew Point: 45°   Wind: 0mph
Humidity: 64%   Direction: NA
Pressure: 30.2"   Gusts: NA
Location:  36.6°N, 119.9°W
Report Text: KFAT 271753Z 00000KT 4SM HZ SCT150 BKN200 14/07 A3020 RMK AO2 SLP225 T01390072 10139 20056 58001
Loading
Personal Weather Stations






























Interactive Weather Map New forecast layout! Learn more

10-Day Weather Forecast

Advertisements
Track Severe Weather on mobile